createdAt,value
2023-02-22T00:01:38.171Z,7.17
2023-02-22T00:04:06.544Z,7.07
2023-02-22T00:06:33.646Z,10.32
2023-02-22T00:09:02.470Z,9.30
2023-02-22T00:11:31.739Z,7.82
2023-02-22T00:13:58.650Z,6.30
2023-02-22T00:16:26.161Z,7.05
2023-02-22T00:18:53.454Z,8.23
2023-02-22T00:21:20.577Z,6.95
2023-02-22T00:23:47.840Z,6.55
2023-02-22T00:26:18.573Z,8.33
2023-02-22T00:28:49.840Z,6.93
2023-02-22T00:31:17.299Z,6.35
2023-02-22T00:33:44.596Z,6.47
2023-02-22T00:36:12.185Z,7.78
2023-02-22T00:38:39.553Z,6.67
2023-02-22T00:41:07.281Z,7.47
2023-02-22T00:43:34.459Z,9.82
2023-02-22T00:46:01.426Z,7.38
2023-02-22T00:48:28.604Z,8.23
2023-02-22T00:50:55.529Z,8.40
2023-02-22T00:53:23.674Z,7.10
2023-02-22T00:55:50.662Z,8.27
2023-02-22T00:58:18.722Z,8.00
2023-02-22T01:00:45.792Z,9.88
2023-02-22T01:03:15.597Z,7.77
2023-02-22T01:05:42.759Z,8.95
2023-02-22T01:08:10.783Z,6.28
2023-02-22T01:10:38.111Z,7.32
2023-02-22T01:13:09.254Z,8.05
2023-02-22T01:15:37.559Z,6.47
2023-02-22T01:18:05.313Z,6.30
2023-02-22T01:20:32.407Z,6.50
2023-02-22T01:23:00.209Z,7.45
2023-02-22T01:25:29.497Z,7.03
2023-02-22T01:27:56.597Z,9.00
2023-02-22T01:30:25.867Z,7.53
2023-02-22T01:32:53.079Z,8.23
2023-02-22T01:35:23.460Z,8.80
2023-02-22T01:37:50.355Z,8.88
2023-02-22T01:40:39.665Z,8.60
2023-02-22T01:43:29.819Z,7.63
2023-02-22T01:46:06.490Z,7.25
2023-02-22T01:48:44.644Z,8.80
2023-02-22T01:51:19.893Z,7.28
2023-02-22T01:53:54.473Z,9.20
2023-02-22T01:56:21.928Z,6.95
2023-02-22T01:58:51.062Z,7.85
2023-02-22T02:01:18.702Z,8.35
2023-02-22T02:03:45.852Z,8.00
2023-02-22T02:06:13.866Z,7.63
2023-02-22T02:09:18.135Z,7.10
2023-02-22T02:11:44.934Z,7.75
2023-02-22T02:14:12.225Z,6.63
2023-02-22T02:16:42.845Z,8.77
2023-02-22T02:19:26.846Z,7.47
2023-02-22T02:22:18.176Z,6.88
2023-02-22T02:24:50.423Z,12.00
2023-02-22T02:27:20.568Z,6.57
2023-02-22T02:30:13.467Z,8.32
2023-02-22T02:33:22.212Z,6.67
2023-02-22T02:36:00.553Z,7.97
2023-02-22T02:38:54.705Z,7.05
2023-02-22T02:41:55.738Z,7.35
2023-02-22T02:44:28.355Z,8.65
2023-02-22T02:47:12.374Z,7.43
2023-02-22T02:50:00.474Z,7.65
2023-02-22T02:52:28.002Z,6.93
2023-02-22T02:54:54.850Z,6.63
2023-02-22T02:57:22.095Z,7.20
2023-02-22T02:59:48.934Z,9.00
2023-02-22T03:02:57.376Z,7.30
2023-02-22T03:06:02.008Z,9.52
2023-02-22T03:09:02.770Z,7.57
2023-02-22T03:11:31.856Z,7.68
2023-02-22T03:14:13.753Z,7.67
2023-02-22T03:16:46.806Z,9.43
2023-02-22T03:19:35.121Z,8.57
2023-02-22T03:22:01.891Z,9.13
2023-02-22T03:24:42.555Z,9.20
2023-02-22T03:27:11.659Z,7.63
2023-02-22T03:29:40.996Z,8.48
2023-02-22T03:32:09.872Z,9.63
2023-02-22T03:35:01.774Z,9.52
2023-02-22T03:37:34.204Z,8.48
2023-02-22T03:40:01.417Z,9.10
2023-02-22T03:42:33.758Z,8.70
2023-02-22T03:45:01.301Z,8.45
2023-02-22T03:47:35.918Z,8.68
2023-02-22T03:50:18.963Z,7.35
2023-02-22T03:52:47.602Z,8.33
2023-02-22T03:55:17.744Z,7.95
2023-02-22T03:57:52.535Z,7.22
2023-02-22T04:00:22.997Z,8.55
2023-02-22T04:02:49.918Z,9.25
2023-02-22T04:08:57.217Z,9.68
2023-02-22T04:11:24.142Z,8.63
2023-02-22T04:13:51.133Z,9.52
2023-02-22T04:16:18.103Z,9.05
2023-02-22T04:18:45.046Z,7.80
2023-02-22T04:21:11.838Z,8.65
2023-02-22T04:23:38.701Z,10.32
2023-02-22T04:26:05.679Z,8.88
2023-02-22T04:28:32.518Z,11.52
2023-02-22T04:30:59.374Z,10.07
2023-02-22T04:33:26.296Z,9.48
2023-02-22T04:35:53.101Z,9.02
2023-02-22T04:38:20.117Z,10.52
2023-02-22T04:40:46.995Z,8.95
2023-02-22T04:43:13.815Z,8.80
2023-02-22T04:45:40.630Z,10.98
2023-02-22T04:48:07.474Z,8.57
2023-02-22T04:50:34.355Z,9.15
2023-02-22T04:53:01.159Z,10.07
2023-02-22T04:55:28.302Z,9.33
2023-02-22T04:57:56.073Z,9.48
2023-02-22T05:00:23.154Z,10.40
2023-02-22T05:02:50.432Z,10.32
2023-02-22T05:05:18.681Z,10.45
2023-02-22T05:07:45.571Z,10.60
2023-02-22T05:10:12.481Z,10.05
2023-02-22T05:12:39.355Z,9.43
2023-02-22T05:15:07.190Z,8.82
2023-02-22T05:17:34.533Z,9.73
2023-02-22T05:20:01.527Z,11.03
2023-02-22T05:22:28.436Z,11.55
2023-02-22T05:24:56.920Z,10.52
2023-02-22T05:27:23.852Z,10.85
2023-02-22T05:29:50.737Z,9.35
2023-02-22T05:32:17.573Z,12.37
2023-02-22T05:34:44.421Z,10.75
2023-02-22T05:37:11.235Z,11.93
2023-02-22T05:39:38.034Z,13.18
2023-02-22T05:42:04.836Z,11.60
2023-02-22T05:44:31.637Z,11.40
2023-02-22T05:46:58.458Z,11.00
2023-02-22T05:49:25.286Z,11.95
2023-02-22T05:51:52.198Z,12.68
2023-02-22T05:54:19.021Z,12.52
2023-02-22T05:56:45.802Z,12.87
2023-02-22T05:59:12.694Z,11.90
2023-02-22T06:01:39.489Z,12.50
2023-02-22T06:04:06.410Z,11.27
2023-02-22T06:06:33.317Z,12.45
2023-02-22T06:09:00.513Z,14.37
2023-02-22T06:11:27.380Z,12.32
2023-02-22T06:13:54.362Z,12.23
2023-02-22T06:16:21.632Z,15.32
2023-02-22T06:18:48.767Z,11.95
2023-02-22T06:21:15.897Z,14.37
2023-02-22T06:23:42.967Z,14.43
2023-02-22T06:26:09.741Z,13.50
2023-02-22T06:28:36.876Z,12.90
2023-02-22T06:31:03.668Z,12.32
2023-02-22T06:33:30.518Z,10.87
2023-02-22T06:35:57.316Z,11.20
2023-02-22T06:38:24.858Z,11.23
2023-02-22T06:40:51.758Z,11.40
2023-02-22T06:43:18.713Z,12.43
2023-02-22T06:45:45.530Z,12.87
2023-02-22T06:48:12.628Z,12.65
2023-02-22T06:50:39.418Z,11.32
2023-02-22T06:53:06.238Z,12.75
2023-02-22T06:55:33.888Z,11.40
2023-02-22T06:58:00.954Z,13.43
2023-02-22T07:00:28.401Z,12.85
2023-02-22T07:02:55.368Z,13.00
2023-02-22T07:05:22.838Z,13.02
2023-02-22T07:07:50.543Z,13.65
2023-02-22T07:10:25.245Z,12.27
2023-02-22T07:12:55.057Z,11.82
2023-02-22T07:15:23.698Z,13.48
2023-02-22T07:17:51.725Z,12.50
2023-02-22T07:20:20.839Z,13.00
2023-02-22T07:22:48.477Z,12.80
2023-02-22T07:25:15.348Z,11.55
2023-02-22T07:27:42.462Z,12.15
2023-02-22T07:30:20.265Z,12.20
2023-02-22T07:32:47.280Z,11.90
2023-02-22T07:35:37.827Z,11.83
2023-02-22T07:38:10.904Z,12.35
2023-02-22T07:40:38.298Z,10.73
2023-02-22T07:43:26.562Z,12.82
2023-02-22T07:45:54.724Z,11.93
2023-02-22T07:48:22.876Z,12.83
2023-02-22T07:50:49.901Z,12.07
2023-02-22T07:53:18.668Z,10.93
2023-02-22T07:55:45.527Z,11.23
2023-02-22T07:58:15.021Z,11.70
2023-02-22T08:00:44.062Z,12.27
2023-02-22T08:03:13.120Z,10.93
2023-02-22T08:05:41.425Z,12.30
2023-02-22T08:08:08.307Z,11.57
2023-02-22T08:10:35.403Z,11.43
2023-02-22T08:13:02.594Z,11.67
2023-02-22T08:15:34.791Z,11.40
2023-02-22T08:18:02.249Z,14.25
2023-02-22T08:20:29.305Z,11.65
2023-02-22T08:22:56.442Z,12.75
2023-02-22T08:25:25.542Z,12.43
2023-02-22T08:27:52.540Z,11.52
2023-02-22T08:30:23.544Z,9.68
2023-02-22T08:32:50.726Z,9.98
2023-02-22T08:35:19.289Z,11.75
2023-02-22T08:37:53.104Z,11.47
2023-02-22T08:40:22.006Z,10.52
2023-02-22T08:42:48.893Z,10.18
2023-02-22T08:45:15.866Z,10.07
2023-02-22T08:47:42.862Z,12.57
2023-02-22T08:50:10.070Z,10.07
2023-02-22T08:52:36.888Z,10.45
2023-02-22T08:55:03.801Z,9.38
2023-02-22T08:57:31.917Z,9.50
2023-02-22T08:59:58.776Z,9.48
2023-02-22T09:02:25.676Z,10.17
2023-02-22T09:04:52.460Z,9.88
2023-02-22T09:07:19.277Z,9.20
2023-02-22T09:09:46.140Z,9.48
2023-02-22T09:12:12.987Z,9.68
2023-02-22T09:14:39.792Z,8.97
2023-02-22T09:17:06.647Z,9.40
2023-02-22T09:19:33.449Z,11.68
2023-02-22T09:22:00.224Z,12.10
2023-02-22T09:24:27.179Z,9.40
2023-02-22T09:26:54.289Z,11.13
2023-02-22T09:29:25.110Z,9.73
2023-02-22T09:31:52.985Z,9.02
2023-02-22T09:34:20.628Z,9.80
2023-02-22T09:36:47.981Z,9.48
2023-02-22T09:39:16.121Z,9.07
2023-02-22T09:42:15.266Z,8.60
2023-02-22T09:44:48.630Z,9.18
2023-02-22T09:47:32.572Z,8.10
2023-02-22T09:50:02.493Z,10.52
2023-02-22T09:52:32.486Z,8.93
2023-02-22T09:55:29.016Z,9.35
2023-02-22T09:57:56.567Z,9.18
2023-02-22T10:00:29.404Z,9.00
2023-02-22T10:03:14.737Z,9.18
2023-02-22T10:05:43.010Z,8.07
2023-02-22T10:08:14.544Z,7.65
2023-02-22T10:10:52.667Z,9.52
2023-02-22T10:13:27.502Z,7.95
2023-02-22T10:16:00.025Z,7.18
2023-02-22T10:18:39.402Z,7.57
2023-02-22T10:21:21.864Z,8.40
2023-02-22T10:24:07.531Z,8.65
2023-02-22T10:26:40.947Z,7.13
2023-02-22T10:29:29.719Z,8.77
2023-02-22T10:32:01.301Z,7.40
2023-02-22T10:34:33.410Z,8.63
2023-02-22T10:37:23.421Z,7.40
2023-02-22T10:39:50.562Z,9.02
2023-02-22T10:42:17.371Z,8.02
2023-02-22T10:44:44.146Z,6.60
2023-02-22T10:47:12.603Z,7.72
2023-02-22T10:49:44.181Z,8.10
2023-02-22T10:52:29.503Z,8.05
2023-02-22T10:55:13.673Z,8.52
2023-02-22T10:57:42.396Z,8.77
2023-02-22T11:00:29.455Z,7.30
2023-02-22T11:02:57.003Z,7.40
2023-02-22T11:05:42.102Z,7.65
2023-02-22T11:08:21.164Z,7.00
2023-02-22T11:10:48.908Z,7.03
2023-02-22T11:13:37.096Z,6.30
2023-02-22T11:16:31.919Z,8.05
2023-02-22T11:19:03.390Z,8.18
2023-02-22T11:21:30.484Z,8.50
2023-02-22T11:24:08.782Z,8.60
2023-02-22T11:26:44.022Z,9.73
2023-02-22T11:29:36.846Z,10.75
2023-02-22T11:32:21.158Z,10.45
2023-02-22T11:34:52.807Z,10.38
2023-02-22T11:37:22.427Z,10.37
2023-02-22T11:39:51.469Z,8.90
2023-02-22T11:42:23.299Z,8.82
2023-02-22T11:45:09.449Z,9.02
2023-02-22T11:47:45.687Z,9.40
2023-02-22T11:50:19.903Z,12.43
2023-02-22T11:52:46.669Z,10.23
2023-02-22T11:55:42.736Z,9.57
2023-02-22T11:58:50.619Z,11.98
2023-02-22T12:01:41.038Z,12.18
2023-02-22T12:04:25.955Z,9.67
2023-02-22T12:07:10.460Z,9.73
2023-02-22T12:09:55.206Z,10.82
2023-02-22T12:12:44.099Z,9.75
2023-02-22T12:15:18.775Z,133.55
2023-02-22T12:18:14.418Z,604.33
2023-02-22T12:20:45.925Z,227.15
2023-02-22T12:23:15.775Z,70.55
2023-02-22T12:25:58.559Z,1393.40
2023-02-22T12:28:53.323Z,1261.10
2023-02-22T12:31:23.408Z,1550.63
2023-02-22T12:34:01.242Z,1555.55
2023-02-22T12:36:40.280Z,1359.65
2023-02-22T12:39:23.576Z,1203.47
2023-02-22T12:41:50.391Z,1146.05
2023-02-22T12:44:20.341Z,1119.40
2023-02-22T12:46:49.408Z,1083.97
2023-02-22T12:49:38.011Z,1036.05
2023-02-22T12:52:22.248Z,1018.45
2023-02-22T12:55:11.247Z,1024.70
2023-02-22T12:57:46.887Z,989.37
2023-02-22T13:00:23.218Z,966.00
2023-02-22T13:03:00.747Z,969.42
2023-02-22T13:05:28.918Z,963.80
2023-02-22T13:08:14.561Z,941.05
2023-02-22T13:10:52.832Z,909.60
2023-02-22T13:13:31.575Z,891.28
2023-02-22T13:16:16.163Z,879.00
2023-02-22T13:18:54.902Z,856.13
2023-02-22T13:21:29.694Z,844.97
2023-02-22T13:24:15.390Z,822.50
2023-02-22T13:26:46.833Z,816.38
2023-02-22T13:29:21.779Z,821.63
2023-02-22T13:32:26.061Z,811.80
2023-02-22T13:35:17.440Z,789.35
2023-02-22T13:38:22.762Z,777.00
2023-02-22T13:41:15.766Z,738.38
2023-02-22T13:44:13.672Z,711.00
2023-02-22T13:47:09.569Z,703.17
2023-02-22T13:49:39.041Z,698.10
2023-02-22T13:52:13.510Z,655.83
2023-02-22T13:54:41.572Z,641.83
2023-02-22T13:57:18.922Z,624.20
2023-02-22T13:59:47.282Z,572.05
2023-02-22T14:02:51.526Z,561.55
2023-02-22T14:05:39.708Z,523.87
2023-02-22T14:08:07.095Z,493.77
2023-02-22T14:11:05.933Z,478.25
2023-02-22T14:14:00.991Z,461.67
2023-02-22T14:16:31.642Z,438.95
2023-02-22T14:19:20.491Z,403.37
2023-02-22T14:22:06.913Z,375.35
2023-02-22T14:24:47.100Z,342.92
2023-02-22T14:27:14.081Z,324.70
2023-02-22T14:29:55.215Z,314.60
2023-02-22T14:32:22.489Z,272.43
2023-02-22T14:34:58.251Z,259.75
2023-02-22T14:37:27.279Z,250.52
2023-02-22T14:40:19.292Z,236.50
2023-02-22T14:42:48.510Z,224.68
2023-02-22T14:45:28.551Z,203.07
2023-02-22T14:48:11.728Z,192.40
2023-02-22T14:50:44.949Z,173.95
2023-02-22T14:53:11.683Z,158.30
2023-02-22T14:55:51.104Z,157.30
2023-02-22T14:58:26.348Z,146.47
2023-02-22T15:00:53.942Z,134.55
2023-02-22T15:03:40.349Z,125.93
2023-02-22T15:06:16.838Z,121.28
2023-02-22T15:08:48.990Z,108.60
2023-02-22T15:11:31.186Z,106.37
2023-02-22T15:13:58.381Z,98.38
2023-02-22T15:16:26.871Z,98.72
2023-02-22T15:18:55.006Z,94.88
2023-02-22T15:21:24.531Z,84.60
2023-02-22T15:24:01.045Z,83.13
2023-02-22T15:26:52.029Z,76.10
2023-02-22T15:29:41.172Z,73.15
2023-02-22T15:32:29.715Z,69.05
2023-02-22T15:35:14.750Z,66.45
2023-02-22T15:37:41.639Z,63.27
2023-02-22T15:40:14.741Z,58.50
2023-02-22T15:42:48.433Z,55.00
2023-02-22T15:45:17.085Z,47.08
2023-02-22T15:47:43.883Z,47.25
2023-02-22T15:50:27.466Z,41.33
2023-02-22T15:52:59.943Z,40.17
2023-02-22T15:55:33.797Z,37.05
2023-02-22T15:58:02.375Z,36.28
2023-02-22T16:00:36.466Z,35.97
2023-02-22T16:03:10.217Z,33.43
2023-02-22T16:05:57.231Z,31.48
2023-02-22T16:08:31.319Z,31.10
2023-02-22T16:11:39.876Z,29.05
2023-02-22T16:14:24.073Z,30.25
2023-02-22T16:16:51.431Z,25.57
2023-02-22T16:19:28.813Z,26.27
2023-02-22T16:22:03.337Z,26.02
2023-02-22T16:24:34.580Z,23.60
2023-02-22T16:27:22.684Z,22.83
2023-02-22T16:30:27.090Z,24.47
2023-02-22T16:32:57.402Z,21.65
2023-02-22T16:35:29.159Z,21.13
2023-02-22T16:38:04.087Z,21.13
2023-02-22T16:40:34.637Z,23.27
2023-02-22T16:43:02.995Z,22.83
2023-02-22T16:45:29.886Z,21.33
2023-02-22T16:47:56.695Z,23.42
2023-02-22T16:50:23.918Z,21.17
2023-02-22T16:52:53.814Z,21.20
2023-02-22T16:55:20.838Z,19.00
2023-02-22T16:57:48.274Z,17.88
2023-02-22T17:00:17.787Z,20.25
2023-02-22T17:02:45.483Z,23.20
2023-02-22T17:05:16.034Z,21.65
2023-02-22T17:07:42.905Z,19.67
2023-02-22T17:10:16.466Z,21.33
2023-02-22T17:12:50.525Z,19.52
2023-02-22T17:15:39.752Z,18.88
2023-02-22T17:18:14.514Z,20.80
2023-02-22T17:20:41.339Z,18.67
2023-02-22T17:23:09.236Z,21.98
2023-02-22T17:25:42.067Z,18.55
2023-02-22T17:28:08.867Z,18.95
2023-02-22T17:30:36.102Z,19.13
2023-02-22T17:33:04.698Z,21.13
2023-02-22T17:35:36.472Z,19.20
2023-02-22T17:38:06.815Z,21.38
2023-02-22T17:40:34.771Z,17.58
2023-02-22T17:43:02.011Z,19.00
2023-02-22T17:45:28.911Z,20.03
2023-02-22T17:47:55.950Z,17.60
2023-02-22T17:50:22.823Z,20.15
2023-02-22T17:52:52.758Z,20.35
2023-02-22T17:55:20.489Z,17.17
2023-02-22T17:57:47.648Z,19.70
2023-02-22T18:00:23.275Z,17.60
2023-02-22T18:02:51.126Z,16.73
2023-02-22T18:05:18.334Z,17.38
2023-02-22T18:07:45.459Z,18.90
2023-02-22T18:10:12.526Z,18.20
2023-02-22T18:12:39.776Z,15.32
2023-02-22T18:15:08.394Z,17.42
2023-02-22T18:17:36.276Z,17.63
2023-02-22T18:20:11.675Z,20.15
2023-02-22T18:22:42.158Z,19.43
2023-02-22T18:25:14.377Z,15.75
2023-02-22T18:27:44.568Z,18.55
2023-02-22T18:30:15.022Z,18.52
2023-02-22T18:32:41.820Z,16.63
2023-02-22T18:35:08.617Z,18.80
2023-02-22T18:37:35.575Z,19.13
2023-02-22T18:40:02.381Z,17.15
2023-02-22T18:42:29.239Z,17.05
2023-02-22T18:45:00.787Z,18.95
2023-02-22T18:47:27.623Z,18.07
2023-02-22T18:49:54.832Z,18.05
2023-02-22T18:52:21.639Z,17.83
2023-02-22T18:54:49.052Z,18.45
2023-02-22T18:57:16.042Z,19.77
2023-02-22T18:59:43.173Z,17.60
2023-02-22T19:02:14.075Z,18.60
2023-02-22T19:04:41.106Z,25.55
2023-02-22T19:07:07.913Z,22.08
2023-02-22T19:09:34.694Z,27.17
2023-02-22T19:12:01.459Z,27.03
2023-02-22T19:14:28.298Z,26.80
2023-02-22T19:16:57.094Z,29.40
2023-02-22T19:19:26.485Z,26.60
2023-02-22T19:21:56.373Z,28.73
2023-02-22T19:24:23.438Z,25.33
2023-02-22T19:26:57.562Z,28.23
2023-02-22T19:29:24.392Z,24.60
2023-02-22T19:31:51.786Z,27.73
2023-02-22T19:34:21.821Z,25.92
2023-02-22T19:36:48.763Z,26.53
2023-02-22T19:39:16.660Z,25.75
2023-02-22T19:41:43.512Z,25.67
2023-02-22T19:44:10.442Z,26.13
2023-02-22T19:46:37.937Z,26.17
2023-02-22T19:49:05.193Z,25.57
2023-02-22T19:51:32.312Z,24.45
2023-02-22T19:54:04.695Z,26.08
2023-02-22T19:56:31.647Z,23.35
2023-02-22T19:59:01.318Z,25.40
2023-02-22T20:01:30.079Z,27.53
2023-02-22T20:04:00.031Z,27.15
2023-02-22T20:06:34.853Z,22.88
2023-02-22T20:09:01.878Z,25.63
2023-02-22T20:11:28.861Z,25.05
2023-02-22T20:13:55.679Z,24.50
2023-02-22T20:16:22.844Z,23.42
2023-02-22T20:18:49.877Z,23.42
2023-02-22T20:21:27.228Z,23.00
2023-02-22T20:23:57.270Z,22.67
2023-02-22T20:26:24.243Z,25.60
2023-02-22T20:28:51.397Z,22.17
2023-02-22T20:31:19.003Z,20.85
2023-02-22T20:33:47.294Z,20.38
2023-02-22T20:36:16.109Z,21.02
2023-02-22T20:38:42.924Z,24.30
2023-02-22T20:41:20.548Z,22.50
2023-02-22T20:43:51.324Z,21.98
2023-02-22T20:46:18.204Z,20.58
2023-02-22T20:48:45.112Z,19.85
2023-02-22T20:51:13.597Z,22.43
2023-02-22T20:53:42.176Z,21.80
2023-02-22T20:56:13.777Z,19.30
2023-02-22T20:58:40.953Z,20.40
2023-02-22T21:01:08.663Z,20.83
2023-02-22T21:03:35.835Z,22.93
2023-02-22T21:06:05.183Z,20.45
2023-02-22T21:08:32.465Z,21.42
2023-02-22T21:10:59.690Z,22.63
2023-02-22T21:13:26.689Z,22.88
2023-02-22T21:15:53.589Z,20.77
2023-02-22T21:18:20.739Z,19.83
2023-02-22T21:20:48.454Z,20.85
2023-02-22T21:23:15.721Z,21.55
2023-02-22T21:25:54.882Z,23.25
2023-02-22T21:28:22.286Z,20.47
2023-02-22T21:30:49.246Z,23.42
2023-02-22T21:33:16.563Z,22.25
2023-02-22T21:35:43.681Z,23.27
2023-02-22T21:38:14.514Z,21.42
2023-02-22T21:40:42.052Z,22.30
2023-02-22T21:43:10.777Z,22.48
2023-02-22T21:45:37.924Z,22.77
2023-02-22T21:48:05.262Z,20.08
2023-02-22T21:50:32.190Z,21.85
2023-02-22T21:52:59.310Z,22.37
2023-02-22T21:55:26.192Z,20.27
2023-02-22T21:57:53.080Z,21.95
2023-02-22T22:00:29.237Z,22.45
2023-02-22T22:03:08.376Z,23.02
2023-02-22T22:05:38.584Z,20.50
2023-02-22T22:08:07.585Z,21.40
2023-02-22T22:10:34.747Z,21.33
2023-02-22T22:13:01.680Z,20.58
2023-02-22T22:15:30.382Z,22.02
2023-02-22T22:18:02.798Z,23.73
2023-02-22T22:20:29.608Z,22.25
2023-02-22T22:22:56.372Z,25.40
2023-02-22T22:25:24.454Z,23.30
2023-02-22T22:27:51.389Z,24.63
2023-02-22T22:30:18.323Z,24.10
2023-02-22T22:32:45.528Z,23.27
2023-02-22T22:35:14.768Z,23.67
2023-02-22T22:37:51.228Z,23.85
2023-02-22T22:40:18.344Z,23.35
2023-02-22T22:42:45.737Z,21.57
2023-02-22T22:45:13.391Z,24.27
2023-02-22T22:47:46.030Z,24.20
2023-02-22T22:50:18.945Z,23.77
2023-02-22T22:52:49.088Z,26.02
2023-02-22T22:55:15.958Z,24.20
2023-02-22T22:57:42.747Z,23.77
2023-02-22T23:00:31.554Z,25.20
2023-02-22T23:02:58.779Z,25.52
2023-02-22T23:05:26.110Z,27.20
2023-02-22T23:07:53.075Z,26.13
2023-02-22T23:10:20.040Z,27.45
2023-02-22T23:12:46.799Z,25.42
2023-02-22T23:15:13.931Z,24.40
2023-02-22T23:17:43.492Z,26.10
2023-02-22T23:20:13.578Z,26.27
2023-02-22T23:22:47.046Z,25.45
2023-02-22T23:25:15.902Z,21.38
2023-02-22T23:27:42.895Z,23.98
2023-02-22T23:30:15.048Z,24.08
2023-02-22T23:32:42.653Z,23.30
2023-02-22T23:35:11.492Z,23.05
2023-02-22T23:37:39.977Z,26.73
2023-02-22T23:40:17.121Z,21.67
2023-02-22T23:42:49.069Z,23.63
2023-02-22T23:45:22.829Z,23.90
2023-02-22T23:47:54.934Z,22.85
2023-02-22T23:50:25.734Z,22.90
2023-02-22T23:52:59.486Z,20.98
2023-02-22T23:55:27.411Z,19.30
2023-02-22T23:57:59.587Z,20.53
